Time,TemperatureF,DewpointF,PressureIn,WindDirection,WindDirectionDegrees,WindSpeedMPH,WindSpeedGustMPH,Humidity,HourlyPrecipIn,Conditions,Clouds,dailyrainin,SolarRadiationWatts/m^2,SoftwareType,DateUTC
2013-03-24 00:00:00,25.9,19.9,30.06,North,5,0.0,0.0,78,0.00,,,0.00,0.0,meteohub,2013-03-24 04:00:00,
2013-03-24 00:05:00,25.7,19.8,30.06,North,5,0.0,0.0,78,0.00,,,0.00,0.0,meteohub,2013-03-24 04:05:00,
2013-03-24 00:10:00,25.5,19.6,30.06,North,5,0.0,0.0,78,0.00,,,0.00,0.0,meteohub,2013-03-24 04:10:00,
2013-03-24 00:15:00,25.3,19.4,30.06,North,5,0.0,0.0,78,0.00,,,0.00,0.0,meteohub,2013-03-24 04:15:00,
2013-03-24 00:20:00,25.2,19.2,30.06,North,0,0.0,0.0,78,0.00,,,0.00,0.0,meteohub,2013-03-24 04:20:00,
2013-03-24 00:25:00,24.8,19.2,30.06,North,5,0.0,0.0,79,0.00,,,0.00,0.0,meteohub,2013-03-24 04:25:00,
2013-03-24 00:30:00,24.6,19.0,30.06,North,0,0.0,0.0,79,0.00,,,0.00,0.0,meteohub,2013-03-24 04:30:00,
2013-03-24 00:35:00,24.4,18.9,30.05,North,5,0.0,0.0,79,0.00,,,0.00,0.0,meteohub,2013-03-24 04:35:00,
2013-03-24 00:40:00,24.3,18.7,30.05,North,0,0.0,0.0,79,0.00,,,0.00,0.0,meteohub,2013-03-24 04:40:00,
2013-03-24 00:45:00,24.1,18.5,30.05,North,0,0.0,0.0,79,0.00,,,0.00,0.0,meteohub,2013-03-24 04:45:00,
2013-03-24 00:50:00,23.7,18.1,30.04,North,5,0.0,0.0,79,0.00,,,0.00,0.0,meteohub,2013-03-24 04:50:00,
2013-03-24 00:55:00,23.5,18.0,30.05,North,5,0.0,0.0,79,0.00,,,0.00,0.0,meteohub,2013-03-24 04:55:00,
2013-03-24 01:00:00,23.4,17.8,30.04,North,5,0.0,0.0,79,0.00,,,0.00,0.0,meteohub,2013-03-24 05:00:00,
2013-03-24 01:05:00,23.2,18.0,30.04,North,0,0.0,0.0,80,0.00,,,0.00,0.0,meteohub,2013-03-24 05:05:00,
2013-03-24 01:10:00,23.0,17.8,30.04,North,5,0.0,0.0,80,0.00,,,0.00,0.0,meteohub,2013-03-24 05:10:00,
2013-03-24 01:15:00,22.8,17.6,30.04,North,0,0.0,0.0,80,0.00,,,0.00,0.0,meteohub,2013-03-24 05:15:00,
2013-03-24 01:21:00,22.6,17.4,30.05,North,5,0.0,0.0,80,0.00,,,0.00,0.0,meteohub,2013-03-24 05:21:00,
2013-03-24 01:26:00,22.6,17.4,30.04,North,0,0.0,0.0,80,0.00,,,0.00,0.0,meteohub,2013-03-24 05:26:00,
2013-03-24 01:31:00,22.5,17.6,30.04,North,5,0.0,0.0,81,0.00,,,0.00,0.0,meteohub,2013-03-24 05:31:00,
2013-03-24 01:36:00,22.3,17.6,30.04,North,0,0.0,0.0,82,0.00,,,0.00,0.0,meteohub,2013-03-24 05:36:00,
2013-03-24 01:41:00,22.3,17.6,30.04,North,5,0.0,0.0,82,0.00,,,0.00,0.0,meteohub,2013-03-24 05:41:00,
2013-03-24 01:47:00,22.1,17.4,30.04,North,0,0.0,0.0,82,0.00,,,0.00,0.0,meteohub,2013-03-24 05:47:00,
2013-03-24 01:52:00,21.9,17.2,30.03,North,5,0.0,0.0,82,0.00,,,0.00,0.0,meteohub,2013-03-24 05:52:00,
2013-03-24 01:57:00,21.7,17.4,30.03,North,0,0.0,0.0,83,0.00,,,0.00,0.0,meteohub,2013-03-24 05:57:00,
2013-03-24 02:02:00,21.9,17.8,30.03,North,0,0.0,0.0,84,0.00,,,0.00,0.0,meteohub,2013-03-24 06:02:00,
2013-03-24 02:07:00,22.3,18.5,30.04,North,0,0.0,0.0,85,0.00,,,0.00,0.0,meteohub,2013-03-24 06:07:00,
2013-03-24 02:12:00,22.1,18.3,30.04,North,0,0.0,0.0,85,0.00,,,0.00,0.0,meteohub,2013-03-24 06:12:00,
2013-03-24 02:17:00,22.1,18.3,30.04,North,0,0.0,0.0,85,0.00,,,0.00,0.0,meteohub,2013-03-24 06:17:00,
2013-03-24 02:22:00,21.9,18.1,30.04,North,5,0.0,0.0,85,0.00,,,0.00,0.0,meteohub,2013-03-24 06:22:00,
2013-03-24 02:27:00,21.9,18.1,30.04,North,5,0.0,0.0,85,0.00,,,0.00,0.0,meteohub,2013-03-24 06:27:00,
2013-03-24 02:32:00,21.9,18.1,30.04,North,0,0.0,0.0,85,0.00,,,0.00,0.0,meteohub,2013-03-24 06:32:00,
2013-03-24 02:37:00,21.7,18.0,30.05,North,5,0.0,0.0,85,0.00,,,0.00,0.0,meteohub,2013-03-24 06:37:00,
2013-03-24 02:42:00,21.6,17.8,30.05,North,0,0.0,0.0,85,0.00,,,0.00,0.0,meteohub,2013-03-24 06:42:00,
2013-03-24 02:47:00,21.6,17.8,30.05,North,5,0.0,0.0,85,0.00,,,0.00,0.0,meteohub,2013-03-24 06:47:00,
2013-03-24 02:52:00,21.4,17.6,30.06,North,5,0.0,0.0,85,0.00,,,0.00,0.0,meteohub,2013-03-24 06:52:00,
2013-03-24 02:57:00,21.2,17.6,30.06,North,5,0.0,0.0,86,0.00,,,0.00,0.0,meteohub,2013-03-24 06:57:00,
2013-03-24 03:02:00,21.2,17.6,30.06,North,5,0.0,0.0,86,0.00,,,0.00,0.0,meteohub,2013-03-24 07:02:00,
2013-03-24 03:07:00,21.2,17.6,30.06,North,0,0.0,0.0,86,0.00,,,0.00,0.0,meteohub,2013-03-24 07:07:00,
2013-03-24 03:12:00,21.2,18.0,30.05,North,0,0.0,0.0,87,0.00,,,0.00,0.0,meteohub,2013-03-24 07:12:00,
2013-03-24 03:17:00,21.2,18.0,30.05,North,0,0.0,0.0,87,0.00,,,0.00,0.0,meteohub,2013-03-24 07:17:00,
2013-03-24 03:22:00,21.2,18.0,30.05,North,5,0.0,0.0,87,0.00,,,0.00,0.0,meteohub,2013-03-24 07:22:00,
2013-03-24 03:27:00,21.0,17.8,30.05,North,5,0.0,0.0,87,0.00,,,0.00,0.0,meteohub,2013-03-24 07:27:00,
2013-03-24 03:32:00,21.0,17.8,30.05,North,5,0.0,0.0,87,0.00,,,0.00,0.0,meteohub,2013-03-24 07:32:00,
2013-03-24 03:38:00,21.0,17.8,30.05,North,5,0.0,0.0,87,0.00,,,0.00,0.0,meteohub,2013-03-24 07:38:00,
2013-03-24 03:43:00,21.0,17.8,30.05,North,5,0.0,0.0,87,0.00,,,0.00,0.0,meteohub,2013-03-24 07:43:00,
2013-03-24 03:48:00,20.8,17.6,30.05,North,5,0.0,0.0,87,0.00,,,0.00,0.0,meteohub,2013-03-24 07:48:00,
2013-03-24 03:53:00,20.8,17.6,30.04,North,0,0.0,0.0,87,0.00,,,0.00,0.0,meteohub,2013-03-24 07:53:00,
2013-03-24 03:58:00,20.8,17.6,30.04,North,0,0.0,0.0,87,0.00,,,0.00,0.0,meteohub,2013-03-24 07:58:00,
2013-03-24 04:03:00,20.8,17.6,30.04,North,0,0.0,0.0,87,0.00,,,0.00,0.0,meteohub,2013-03-24 08:03:00,
2013-03-24 04:08:00,20.8,17.6,30.04,North,0,0.0,0.0,87,0.00,,,0.00,0.0,meteohub,2013-03-24 08:08:00,
2013-03-24 04:13:00,20.8,17.6,30.04,North,5,0.0,0.0,87,0.00,,,0.00,0.0,meteohub,2013-03-24 08:13:00,
2013-03-24 04:18:00,20.8,17.6,30.04,North,5,0.0,0.0,87,0.00,,,0.00,0.0,meteohub,2013-03-24 08:18:00,
2013-03-24 04:23:00,20.8,17.6,30.04,North,5,0.0,0.0,87,0.00,,,0.00,0.0,meteohub,2013-03-24 08:23:00,
2013-03-24 04:28:00,20.8,17.6,30.04,North,0,0.0,0.0,87,0.00,,,0.00,0.0,meteohub,2013-03-24 08:28:00,
2013-03-24 04:33:00,20.8,17.8,30.04,North,5,0.0,0.0,88,0.00,,,0.00,0.0,meteohub,2013-03-24 08:33:00,
2013-03-24 04:38:00,21.0,18.0,30.04,North,0,0.0,0.0,88,0.00,,,0.00,0.0,meteohub,2013-03-24 08:38:00,
2013-03-24 04:43:00,21.0,18.0,30.04,North,0,0.0,0.0,88,0.00,,,0.00,0.0,meteohub,2013-03-24 08:43:00,
2013-03-24 04:48:00,21.2,18.1,30.04,North,5,0.0,0.0,88,0.00,,,0.00,0.0,meteohub,2013-03-24 08:48:00,
2013-03-24 04:53:00,21.4,18.3,30.03,North,0,0.0,0.0,88,0.00,,,0.00,0.0,meteohub,2013-03-24 08:53:00,
2013-03-24 04:58:00,21.4,18.3,30.03,North,5,0.0,0.0,88,0.00,,,0.00,0.0,meteohub,2013-03-24 08:58:00,
2013-03-24 05:03:00,21.4,18.3,30.02,North,0,0.0,0.0,88,0.00,,,0.00,0.0,meteohub,2013-03-24 09:03:00,
2013-03-24 05:08:00,21.6,18.5,30.01,North,5,0.0,0.0,88,0.00,,,0.00,0.0,meteohub,2013-03-24 09:08:00,
2013-03-24 05:13:00,21.6,18.5,30.02,North,5,0.0,0.0,88,0.00,,,0.00,0.0,meteohub,2013-03-24 09:13:00,
2013-03-24 05:18:00,21.6,18.5,30.01,North,5,0.0,0.0,88,0.00,,,0.00,0.0,meteohub,2013-03-24 09:18:00,
2013-03-24 05:23:00,21.6,18.5,30.01,North,0,0.0,0.0,88,0.00,,,0.00,0.0,meteohub,2013-03-24 09:23:00,
2013-03-24 05:28:00,21.7,18.7,30.01,North,5,0.0,0.0,88,0.00,,,0.00,0.0,meteohub,2013-03-24 09:28:00,
2013-03-24 05:33:00,21.7,18.7,30.01,North,0,0.0,0.0,88,0.00,,,0.00,0.0,meteohub,2013-03-24 09:33:00,
2013-03-24 05:38:00,21.7,19.0,30.01,North,5,0.0,0.0,89,0.00,,,0.00,0.0,meteohub,2013-03-24 09:38:00,
2013-03-24 05:43:00,21.9,19.2,30.01,North,0,0.0,0.0,89,0.00,,,0.00,0.0,meteohub,2013-03-24 09:43:00,
2013-03-24 05:48:00,21.9,19.2,30.01,North,5,0.0,0.0,89,0.00,,,0.00,0.0,meteohub,2013-03-24 09:48:00,
2013-03-24 05:53:00,22.1,19.4,30.01,North,0,0.0,0.0,89,0.00,,,0.00,0.0,meteohub,2013-03-24 09:53:00,
2013-03-24 05:58:00,22.1,19.4,30.01,North,5,0.0,0.0,89,0.00,,,0.00,0.0,meteohub,2013-03-24 09:58:00,
2013-03-24 06:04:00,22.3,19.6,30.01,North,5,0.0,0.0,89,0.00,,,0.00,0.0,meteohub,2013-03-24 10:04:00,
2013-03-24 06:09:00,22.5,19.8,30.00,North,5,0.0,0.0,89,0.00,,,0.00,0.0,meteohub,2013-03-24 10:09:00,
2013-03-24 06:14:00,22.6,19.9,30.00,North,0,0.0,0.0,89,0.00,,,0.00,0.0,meteohub,2013-03-24 10:14:00,
2013-03-24 06:19:00,22.6,19.9,30.00,North,5,0.0,0.0,89,0.00,,,0.00,0.0,meteohub,2013-03-24 10:19:00,
2013-03-24 06:24:00,22.8,20.1,30.00,North,0,0.0,0.0,89,0.00,,,0.00,0.0,meteohub,2013-03-24 10:24:00,
2013-03-24 06:29:00,23.2,20.5,30.00,North,5,1.0,0.0,89,0.00,,,0.00,0.0,meteohub,2013-03-24 10:29:00,
2013-03-24 06:34:00,23.4,20.8,30.00,North,0,0.0,0.0,90,0.00,,,0.00,0.0,meteohub,2013-03-24 10:34:00,
2013-03-24 06:39:00,23.7,21.2,30.00,North,5,0.0,2.0,90,0.00,,,0.00,0.0,meteohub,2013-03-24 10:39:00,
2013-03-24 06:44:00,23.9,21.4,30.00,North,0,0.0,2.0,90,0.00,,,0.00,0.0,meteohub,2013-03-24 10:44:00,
2013-03-24 06:49:00,24.3,21.7,30.00,North,5,0.0,2.0,90,0.00,,,0.00,0.0,meteohub,2013-03-24 10:49:00,
2013-03-24 06:54:00,24.3,21.7,30.00,North,5,0.0,3.0,90,0.00,,,0.00,0.0,meteohub,2013-03-24 10:54:00,
2013-03-24 06:59:00,24.4,21.9,30.00,North,0,0.0,3.0,90,0.00,,,0.00,0.0,meteohub,2013-03-24 10:59:00,
2013-03-24 07:04:00,24.6,22.1,30.00,North,5,0.0,3.0,90,0.00,,,0.00,0.0,meteohub,2013-03-24 11:04:00,
2013-03-24 07:09:00,24.8,22.3,30.00,North,0,0.0,3.0,90,0.00,,,0.00,0.0,meteohub,2013-03-24 11:09:00,
2013-03-24 07:14:00,25.0,22.5,30.00,North,5,1.0,2.0,90,0.00,,,0.00,0.0,meteohub,2013-03-24 11:14:00,
2013-03-24 07:19:00,25.2,22.5,30.00,North,11,0.0,2.0,89,0.00,,,0.00,0.0,meteohub,2013-03-24 11:19:00,
2013-03-24 07:24:00,25.2,22.5,30.00,North,11,1.0,2.0,89,0.00,,,0.00,0.0,meteohub,2013-03-24 11:24:00,
2013-03-24 07:29:00,25.2,22.5,30.00,North,11,0.0,2.0,89,0.00,,,0.00,0.0,meteohub,2013-03-24 11:29:00,
2013-03-24 07:34:00,25.3,22.6,30.00,North,11,0.0,3.0,89,0.00,,,0.00,0.0,meteohub,2013-03-24 11:34:00,
2013-03-24 07:39:00,25.3,22.3,30.00,North,11,0.0,3.0,88,0.00,,,0.00,0.0,meteohub,2013-03-24 11:39:00,
2013-03-24 07:44:00,25.3,22.3,29.99,North,11,0.0,3.0,88,0.00,,,0.00,0.0,meteohub,2013-03-24 11:44:00,
2013-03-24 07:49:00,25.5,22.5,30.00,North,11,0.0,3.0,88,0.00,,,0.00,0.0,meteohub,2013-03-24 11:49:00,
2013-03-24 07:54:00,25.5,22.5,29.99,North,11,0.0,0.0,88,0.00,,,0.00,0.0,meteohub,2013-03-24 11:54:00,
2013-03-24 07:59:00,25.5,22.5,29.99,North,11,0.0,0.0,88,0.00,,,0.00,5.0,meteohub,2013-03-24 11:59:00,
2013-03-24 08:04:00,25.5,22.5,29.99,North,11,0.0,0.0,88,0.00,,,0.00,7.0,meteohub,2013-03-24 12:04:00,
2013-03-24 08:10:00,25.5,22.3,29.98,NNE,23,0.0,0.0,87,0.00,,,0.00,11.0,meteohub,2013-03-24 12:10:00,
2013-03-24 08:15:00,25.5,22.3,29.98,NNE,25,0.0,4.0,87,0.00,,,0.00,12.0,meteohub,2013-03-24 12:15:00,
2013-03-24 08:20:00,25.5,22.3,29.98,East,85,4.0,4.0,87,0.00,,,0.00,14.0,meteohub,2013-03-24 12:20:00,
2013-03-24 08:25:00,25.7,22.5,29.98,East,85,0.0,4.0,87,0.00,,,0.00,16.0,meteohub,2013-03-24 12:25:00,
2013-03-24 08:30:00,25.7,22.5,29.98,East,86,1.0,4.0,87,0.00,,,0.00,18.0,meteohub,2013-03-24 12:30:00,
2013-03-24 08:35:00,25.9,22.3,29.98,ENE,60,0.0,7.0,86,0.00,,,0.00,19.0,meteohub,2013-03-24 12:35:00,
2013-03-24 08:40:00,25.9,22.3,29.98,NE,40,2.0,7.0,86,0.00,,,0.00,21.0,meteohub,2013-03-24 12:40:00,
2013-03-24 08:45:00,26.1,22.6,29.98,NE,42,0.0,7.0,87,0.00,,,0.00,23.0,meteohub,2013-03-24 12:45:00,
2013-03-24 08:50:00,26.1,22.6,29.99,NE,51,2.0,7.0,87,0.00,,,0.00,25.0,meteohub,2013-03-24 12:50:00,
2013-03-24 08:55:00,26.2,22.6,29.98,NE,51,0.0,4.0,86,0.00,,,0.00,26.0,meteohub,2013-03-24 12:55:00,
2013-03-24 09:00:00,26.2,22.8,29.98,NE,51,0.0,4.0,87,0.00,,,0.00,30.0,meteohub,2013-03-24 13:00:00,
2013-03-24 09:05:00,26.4,23.0,29.99,NE,51,0.0,4.0,87,0.00,,,0.00,33.0,meteohub,2013-03-24 13:05:00,
2013-03-24 09:10:00,26.4,23.0,29.98,NE,51,0.0,4.0,87,0.00,,,0.00,37.0,meteohub,2013-03-24 13:10:00,
2013-03-24 09:15:00,26.6,23.2,29.98,NE,51,0.0,3.0,87,0.00,,,0.00,39.0,meteohub,2013-03-24 13:15:00,
2013-03-24 09:20:00,26.8,23.4,29.98,NE,49,0.0,3.0,87,0.00,,,0.00,40.0,meteohub,2013-03-24 13:20:00,
2013-03-24 09:25:00,27.0,23.5,29.97,ENE,76,0.0,3.0,87,0.00,,,0.00,44.0,meteohub,2013-03-24 13:25:00,
2013-03-24 09:30:00,27.1,23.7,29.97,ENE,75,0.0,3.0,87,0.00,,,0.00,46.0,meteohub,2013-03-24 13:30:00,
2013-03-24 09:35:00,27.1,23.7,29.97,ENE,76,2.0,5.0,87,0.00,,,0.00,49.0,meteohub,2013-03-24 13:35:00,
2013-03-24 09:40:00,27.3,23.9,29.97,East,86,2.0,5.0,87,0.00,,,0.00,54.0,meteohub,2013-03-24 13:40:00,
2013-03-24 09:45:00,27.5,24.1,29.97,East,87,3.0,5.0,87,0.00,,,0.00,56.0,meteohub,2013-03-24 13:45:00,
2013-03-24 09:50:00,27.7,24.3,29.97,East,86,5.0,5.0,87,0.00,,,0.00,56.0,meteohub,2013-03-24 13:50:00,
2013-03-24 09:55:00,27.9,24.3,29.97,ENE,78,0.0,10.0,86,0.00,,,0.00,58.0,meteohub,2013-03-24 13:55:00,
2013-03-24 10:00:00,28.2,24.6,29.97,East,95,0.0,10.0,86,0.00,,,0.00,67.0,meteohub,2013-03-24 14:00:00,
2013-03-24 10:05:00,28.4,24.8,29.97,East,86,0.0,10.0,86,0.00,,,0.00,72.0,meteohub,2013-03-24 14:05:00,
2013-03-24 10:10:00,28.8,24.8,29.97,East,82,2.0,10.0,85,0.00,,,0.00,70.0,meteohub,2013-03-24 14:10:00,
2013-03-24 10:15:00,28.8,24.8,29.97,East,85,0.0,8.0,85,0.00,,,0.00,69.0,meteohub,2013-03-24 14:15:00,
2013-03-24 10:20:00,28.9,24.8,29.96,East,79,6.0,8.0,84,0.00,,,0.00,69.0,meteohub,2013-03-24 14:20:00,
2013-03-24 10:25:00,29.1,25.0,29.96,ENE,76,0.0,8.0,84,0.00,,,0.00,69.0,meteohub,2013-03-24 14:25:00,
2013-03-24 10:30:00,29.3,25.2,29.96,ENE,76,0.0,8.0,84,0.00,,,0.00,76.0,meteohub,2013-03-24 14:30:00,
2013-03-24 10:35:00,29.5,25.2,29.96,East,82,4.0,8.0,84,0.00,,,0.00,77.0,meteohub,2013-03-24 14:35:00,
2013-03-24 10:40:00,29.7,25.2,29.95,ENE,63,0.0,8.0,83,0.00,,,0.00,74.0,meteohub,2013-03-24 14:40:00,
2013-03-24 10:45:00,29.7,25.2,29.95,East,80,0.0,8.0,83,0.00,,,0.00,76.0,meteohub,2013-03-24 14:45:00,
2013-03-24 10:50:00,29.8,25.3,29.95,ENE,70,2.0,8.0,83,0.00,,,0.00,84.0,meteohub,2013-03-24 14:50:00,
2013-03-24 10:55:00,29.8,25.0,29.95,ENE,74,0.0,12.0,82,0.00,,,0.00,91.0,meteohub,2013-03-24 14:55:00,
2013-03-24 11:00:00,30.0,25.2,29.94,ENE,75,0.0,12.0,82,0.00,,,0.00,95.0,meteohub,2013-03-24 15:00:00,
2013-03-24 11:05:00,30.0,25.0,29.94,East,82,3.0,12.0,81,0.00,,,0.00,98.0,meteohub,2013-03-24 15:05:00,
2013-03-24 11:10:00,30.4,25.3,29.94,East,84,0.0,12.0,81,0.00,,,0.00,113.0,meteohub,2013-03-24 15:10:00,
2013-03-24 11:16:00,30.6,25.3,29.94,ENE,67,0.0,11.0,81,0.00,,,0.00,123.0,meteohub,2013-03-24 15:16:00,
2013-03-24 11:20:00,30.6,25.3,29.93,ENE,77,1.0,11.0,81,0.00,,,0.00,134.0,meteohub,2013-03-24 15:20:00,
2013-03-24 11:26:00,30.7,25.3,29.93,East,88,6.0,12.0,80,0.00,,,0.00,130.0,meteohub,2013-03-24 15:26:00,
2013-03-24 11:31:00,30.7,25.3,29.92,East,80,0.0,12.0,80,0.00,,,0.00,123.0,meteohub,2013-03-24 15:31:00,
2013-03-24 11:36:00,30.7,25.0,29.92,East,86,2.0,12.0,79,0.00,,,0.00,128.0,meteohub,2013-03-24 15:36:00,
2013-03-24 11:41:00,30.9,25.5,29.92,ENE,57,0.0,11.0,80,0.00,,,0.00,148.0,meteohub,2013-03-24 15:41:00,
2013-03-24 11:46:00,31.1,25.7,29.92,East,82,0.0,11.0,80,0.00,,,0.00,163.0,meteohub,2013-03-24 15:46:00,
2013-03-24 11:51:00,31.1,25.0,29.92,NNW,339,0.0,11.0,78,0.00,,,0.00,176.0,meteohub,2013-03-24 15:51:00,
2013-03-24 11:56:00,31.3,25.5,29.92,NE,38,1.0,11.0,79,0.00,,,0.00,176.0,meteohub,2013-03-24 15:56:00,
2013-03-24 12:01:00,31.3,25.0,29.92,East,80,0.0,11.0,77,0.00,,,0.00,169.0,meteohub,2013-03-24 16:01:00,
2013-03-24 12:06:00,31.3,25.0,29.92,East,87,4.0,11.0,77,0.00,,,0.00,174.0,meteohub,2013-03-24 16:06:00,
2013-03-24 12:11:00,31.5,25.3,29.92,ENE,75,0.0,17.0,78,0.00,,,0.00,206.0,meteohub,2013-03-24 16:11:00,
2013-03-24 12:16:00,31.6,25.5,29.91,East,84,2.0,17.0,78,0.00,,,0.00,225.0,meteohub,2013-03-24 16:16:00,
2013-03-24 12:22:00,31.8,25.5,29.91,East,82,0.0,12.0,77,0.00,,,0.00,221.0,meteohub,2013-03-24 16:22:00,
2013-03-24 12:27:00,32.0,25.7,29.90,NNW,347,0.0,12.0,77,0.00,,,0.00,232.0,meteohub,2013-03-24 16:27:00,
2013-03-24 12:32:00,32.2,25.7,29.90,ENE,68,0.0,12.0,77,0.00,,,0.00,248.0,meteohub,2013-03-24 16:32:00,
2013-03-24 12:38:00,32.5,25.9,29.89,East,80,2.0,11.0,76,0.00,,,0.00,287.0,meteohub,2013-03-24 16:38:00,
2013-03-24 12:43:00,32.5,25.5,29.89,East,88,6.0,11.0,75,0.00,,,0.00,309.0,meteohub,2013-03-24 16:43:00,
2013-03-24 12:48:00,32.5,25.5,29.88,East,80,0.0,13.0,75,0.00,,,0.00,294.0,meteohub,2013-03-24 16:48:00,
2013-03-24 12:53:00,33.1,26.1,29.88,East,80,5.0,13.0,75,0.00,,,0.00,292.0,meteohub,2013-03-24 16:53:00,
2013-03-24 12:58:00,33.6,26.6,29.88,NE,55,0.0,14.0,75,0.00,,,0.00,299.0,meteohub,2013-03-24 16:58:00,
2013-03-24 13:03:00,33.4,26.1,29.88,ENE,69,0.0,14.0,74,0.00,,,0.00,327.0,meteohub,2013-03-24 17:03:00,
2013-03-24 13:08:00,34.2,26.4,29.88,SW,231,0.0,8.0,73,0.00,,,0.00,341.0,meteohub,2013-03-24 17:08:00,
2013-03-24 13:13:00,34.2,26.1,29.88,East,80,0.0,8.0,72,0.00,,,0.00,366.0,meteohub,2013-03-24 17:13:00,
2013-03-24 13:18:00,34.0,25.9,29.87,ENE,69,1.0,8.0,72,0.00,,,0.00,404.0,meteohub,2013-03-24 17:18:00,
2013-03-24 13:23:00,34.0,25.5,29.87,East,88,2.0,8.0,71,0.00,,,0.00,390.0,meteohub,2013-03-24 17:23:00,
2013-03-24 13:28:00,34.3,25.9,29.87,NW,319,5.0,12.0,71,0.00,,,0.00,357.0,meteohub,2013-03-24 17:28:00,
2013-03-24 13:34:00,34.3,25.5,29.87,ENE,63,2.0,12.0,70,0.00,,,0.00,387.0,meteohub,2013-03-24 17:34:00,
2013-03-24 13:39:00,34.3,25.2,29.87,NNE,19,2.0,12.0,69,0.00,,,0.00,401.0,meteohub,2013-03-24 17:39:00,
2013-03-24 13:44:00,34.7,25.5,29.87,NW,324,4.0,12.0,69,0.00,,,0.00,336.0,meteohub,2013-03-24 17:44:00,
2013-03-24 13:49:00,34.3,25.2,29.87,East,86,0.0,12.0,69,0.00,,,0.00,318.0,meteohub,2013-03-24 17:49:00,
2013-03-24 13:54:00,34.3,25.5,29.86,East,80,8.0,13.0,70,0.00,,,0.00,316.0,meteohub,2013-03-24 17:54:00,
2013-03-24 13:59:00,34.5,25.3,29.86,East,80,0.0,13.0,69,0.00,,,0.00,294.0,meteohub,2013-03-24 17:59:00,
2013-03-24 14:04:00,34.3,24.4,29.86,ENE,75,3.0,13.0,67,0.00,,,0.00,285.0,meteohub,2013-03-24 18:04:00,
2013-03-24 14:09:00,34.5,25.7,29.86,East,88,5.0,14.0,70,0.00,,,0.00,290.0,meteohub,2013-03-24 18:09:00,
2013-03-24 14:14:00,34.5,25.3,29.86,NW,325,0.0,14.0,69,0.00,,,0.00,313.0,meteohub,2013-03-24 18:14:00,
2013-03-24 14:19:00,34.9,25.3,29.85,East,80,5.0,13.0,68,0.00,,,0.00,288.0,meteohub,2013-03-24 18:19:00,
2013-03-24 14:24:00,35.1,25.9,29.85,ENE,77,0.0,13.0,69,0.00,,,0.00,295.0,meteohub,2013-03-24 18:24:00,
2013-03-24 14:29:00,34.9,25.3,29.85,NNW,346,0.0,11.0,68,0.00,,,0.00,287.0,meteohub,2013-03-24 18:29:00,
2013-03-24 14:34:00,35.1,25.5,29.85,ENE,69,0.0,10.0,68,0.00,,,0.00,294.0,meteohub,2013-03-24 18:34:00,
2013-03-24 14:39:00,35.1,24.8,29.84,East,91,5.0,11.0,66,0.00,,,0.00,311.0,meteohub,2013-03-24 18:39:00,
2013-03-24 14:44:00,35.4,25.9,29.84,East,80,0.0,11.0,68,0.00,,,0.00,334.0,meteohub,2013-03-24 18:44:00,
2013-03-24 14:49:00,35.6,25.7,29.84,East,81,0.0,11.0,67,0.00,,,0.00,360.0,meteohub,2013-03-24 18:49:00,
2013-03-24 14:54:00,36.1,25.9,29.83,ESE,109,12.0,13.0,66,0.00,,,0.00,343.0,meteohub,2013-03-24 18:54:00,
2013-03-24 14:59:00,36.0,25.3,29.83,East,80,4.0,13.0,65,0.00,,,0.00,357.0,meteohub,2013-03-24 18:59:00,
2013-03-24 15:04:00,36.1,25.5,29.83,East,84,2.0,13.0,65,0.00,,,0.00,369.0,meteohub,2013-03-24 19:04:00,
2013-03-24 15:09:00,36.1,25.9,29.83,East,80,0.0,12.0,66,0.00,,,0.00,281.0,meteohub,2013-03-24 19:09:00,
2013-03-24 15:14:00,36.0,26.4,29.82,NW,315,0.0,12.0,68,0.00,,,0.00,288.0,meteohub,2013-03-24 19:14:00,
2013-03-24 15:19:00,35.6,26.1,29.82,NNW,339,0.0,7.0,68,0.00,,,0.00,313.0,meteohub,2013-03-24 19:19:00,
2013-03-24 15:25:00,36.1,26.6,29.82,NW,321,0.0,8.0,68,0.00,,,0.00,373.0,meteohub,2013-03-24 19:25:00,
2013-03-24 15:30:00,36.3,26.8,29.81,NE,37,2.0,8.0,68,0.00,,,0.00,601.0,meteohub,2013-03-24 19:30:00,
2013-03-24 15:35:00,36.7,26.4,29.81,East,79,0.0,8.0,66,0.00,,,0.00,357.0,meteohub,2013-03-24 19:35:00,
2013-03-24 15:40:00,36.7,26.8,29.81,NNE,33,4.0,14.0,67,0.00,,,0.00,313.0,meteohub,2013-03-24 19:40:00,
2013-03-24 15:45:00,36.1,26.2,29.80,ENE,78,6.0,14.0,67,0.00,,,0.00,431.0,meteohub,2013-03-24 19:45:00,
2013-03-24 15:50:00,36.1,26.2,29.80,ENE,75,1.0,14.0,67,0.00,,,0.00,244.0,meteohub,2013-03-24 19:50:00,
2013-03-24 15:55:00,35.8,25.2,29.79,East,91,4.0,18.0,65,0.00,,,0.00,272.0,meteohub,2013-03-24 19:55:00,
2013-03-24 16:00:00,35.8,24.8,29.79,East,93,5.0,18.0,64,0.00,,,0.00,457.0,meteohub,2013-03-24 20:00:00,
2013-03-24 16:05:00,36.3,25.3,29.79,East,92,5.0,18.0,64,0.00,,,0.00,427.0,meteohub,2013-03-24 20:05:00,
2013-03-24 16:10:00,36.9,25.5,29.78,East,84,4.0,18.0,63,0.00,,,0.00,420.0,meteohub,2013-03-24 20:10:00,
2013-03-24 16:15:00,36.9,25.5,29.78,East,95,7.0,18.0,63,0.00,,,0.00,654.0,meteohub,2013-03-24 20:15:00,
2013-03-24 16:20:00,37.2,25.7,29.78,East,86,5.0,18.0,63,0.00,,,0.00,436.0,meteohub,2013-03-24 20:20:00,
2013-03-24 16:25:00,37.6,26.6,29.78,WNW,302,4.0,17.0,64,0.00,,,0.00,729.0,meteohub,2013-03-24 20:25:00,
2013-03-24 16:30:00,37.0,26.1,29.78,ENE,67,2.0,17.0,64,0.00,,,0.00,339.0,meteohub,2013-03-24 20:30:00,
2013-03-24 16:35:00,36.7,26.1,29.78,East,86,1.0,17.0,65,0.00,,,0.00,339.0,meteohub,2013-03-24 20:35:00,
2013-03-24 16:40:00,36.9,25.5,29.77,East,99,8.0,17.0,63,0.00,,,0.00,638.0,meteohub,2013-03-24 20:40:00,
2013-03-24 16:45:00,37.0,24.8,29.77,East,79,2.0,17.0,61,0.00,,,0.00,264.0,meteohub,2013-03-24 20:45:00,
2013-03-24 16:51:00,36.0,24.3,29.77,ENE,71,3.0,17.0,62,0.00,,,0.00,248.0,meteohub,2013-03-24 20:51:00,
2013-03-24 16:56:00,36.3,24.6,29.77,ENE,76,5.0,23.0,62,0.00,,,0.00,496.0,meteohub,2013-03-24 20:56:00,
2013-03-24 17:01:00,36.3,25.0,29.77,ENE,78,0.0,23.0,63,0.00,,,0.00,364.0,meteohub,2013-03-24 21:01:00,
2013-03-24 17:06:00,36.1,24.4,29.76,East,91,8.0,23.0,62,0.00,,,0.00,211.0,meteohub,2013-03-24 21:06:00,
2013-03-24 17:11:00,35.2,23.9,29.76,East,90,4.0,25.0,63,0.00,,,0.00,227.0,meteohub,2013-03-24 21:11:00,
2013-03-24 17:16:00,35.4,24.8,29.75,North,0,2.0,25.0,65,0.00,,,0.00,232.0,meteohub,2013-03-24 21:16:00,
2013-03-24 17:21:00,35.8,25.2,29.75,West,260,2.0,20.0,65,0.00,,,0.00,285.0,meteohub,2013-03-24 21:21:00,
2013-03-24 17:27:00,35.4,24.1,29.75,ENE,72,1.0,20.0,63,0.00,,,0.00,364.0,meteohub,2013-03-24 21:27:00,
2013-03-24 17:32:00,35.4,24.1,29.75,NE,42,4.0,20.0,63,0.00,,,0.00,404.0,meteohub,2013-03-24 21:32:00,
2013-03-24 17:37:00,35.2,24.3,29.75,East,79,2.0,22.0,64,0.00,,,0.00,304.0,meteohub,2013-03-24 21:37:00,
2013-03-24 17:42:00,35.1,24.1,29.75,East,95,5.0,22.0,64,0.00,,,0.00,274.0,meteohub,2013-03-24 21:42:00,
2013-03-24 17:47:00,34.5,23.5,29.74,East,90,6.0,22.0,64,0.00,,,0.00,142.0,meteohub,2013-03-24 21:47:00,
2013-03-24 17:52:00,34.3,24.1,29.74,ENE,75,3.0,22.0,66,0.00,,,0.00,178.0,meteohub,2013-03-24 21:52:00,
2013-03-24 17:57:00,34.3,23.7,29.74,NNW,328,5.0,15.0,65,0.00,,,0.00,236.0,meteohub,2013-03-24 21:57:00,
2013-03-24 18:02:00,34.9,24.6,29.74,East,97,0.0,15.0,66,0.00,,,0.00,387.0,meteohub,2013-03-24 22:02:00,
2013-03-24 18:07:00,34.5,23.5,29.74,North,0,2.0,13.0,64,0.00,,,0.00,141.0,meteohub,2013-03-24 22:07:00,
2013-03-24 18:13:00,34.2,24.1,29.74,NE,35,0.0,13.0,66,0.00,,,0.00,146.0,meteohub,2013-03-24 22:13:00,
2013-03-24 18:18:00,34.2,24.4,29.74,East,79,3.0,13.0,67,0.00,,,0.00,181.0,meteohub,2013-03-24 22:18:00,
2013-03-24 18:23:00,34.3,24.4,29.74,ENE,69,3.0,20.0,67,0.00,,,0.00,193.0,meteohub,2013-03-24 22:23:00,
2013-03-24 18:28:00,34.3,24.1,29.73,ENE,74,1.0,20.0,66,0.00,,,0.00,118.0,meteohub,2013-03-24 22:28:00,
2013-03-24 18:33:00,34.0,24.3,29.73,ESE,107,6.0,20.0,67,0.00,,,0.00,105.0,meteohub,2013-03-24 22:33:00,
2013-03-24 18:38:00,33.4,23.7,29.73,NE,39,2.0,20.0,67,0.00,,,0.00,107.0,meteohub,2013-03-24 22:38:00,
2013-03-24 18:43:00,33.3,23.9,29.73,East,81,2.0,20.0,68,0.00,,,0.00,93.0,meteohub,2013-03-24 22:43:00,
2013-03-24 18:48:00,33.1,24.1,29.73,NE,56,5.0,20.0,69,0.00,,,0.00,104.0,meteohub,2013-03-24 22:48:00,
2013-03-24 18:53:00,33.1,24.1,29.73,NNW,331,2.0,20.0,69,0.00,,,0.00,100.0,meteohub,2013-03-24 22:53:00,
2013-03-24 18:58:00,33.1,24.1,29.73,ENE,70,1.0,12.0,69,0.00,,,0.00,65.0,meteohub,2013-03-24 22:58:00,
2013-03-24 19:03:00,32.7,23.4,29.73,ENE,78,3.0,12.0,68,0.00,,,0.00,49.0,meteohub,2013-03-24 23:03:00,
2013-03-24 19:08:00,32.5,23.5,29.73,East,86,0.0,11.0,69,0.00,,,0.00,42.0,meteohub,2013-03-24 23:08:00,
2013-03-24 19:13:00,32.4,23.4,29.73,East,90,1.0,11.0,69,0.00,,,0.00,40.0,meteohub,2013-03-24 23:13:00,
2013-03-24 19:18:00,32.2,23.2,29.73,West,275,5.0,13.0,69,0.00,,,0.00,40.0,meteohub,2013-03-24 23:18:00,
2013-03-24 19:23:00,32.2,23.2,29.73,East,96,1.0,13.0,69,0.00,,,0.00,37.0,meteohub,2013-03-24 23:23:00,
2013-03-24 19:28:00,32.2,23.2,29.74,NE,46,0.0,14.0,69,0.00,,,0.00,28.0,meteohub,2013-03-24 23:28:00,
2013-03-24 19:33:00,31.8,22.5,29.74,East,90,4.0,14.0,68,0.00,,,0.00,18.0,meteohub,2013-03-24 23:33:00,
2013-03-24 19:38:00,31.6,21.2,29.74,ENE,67,4.0,13.0,65,0.00,,,0.00,14.0,meteohub,2013-03-24 23:38:00,
2013-03-24 19:43:00,31.5,20.7,29.74,East,84,2.0,13.0,64,0.00,,,0.00,11.0,meteohub,2013-03-24 23:43:00,
2013-03-24 19:48:00,31.3,20.5,29.74,East,86,2.0,21.0,64,0.00,,,0.00,7.0,meteohub,2013-03-24 23:48:00,
2013-03-24 19:53:00,31.1,19.9,29.74,East,80,3.0,21.0,63,0.00,,,0.00,0.0,meteohub,2013-03-24 23:53:00,
2013-03-24 19:58:00,30.9,19.4,29.73,East,93,7.0,14.0,62,0.00,,,0.00,0.0,meteohub,2013-03-24 23:58:00,
2013-03-24 20:03:00,30.7,18.9,29.73,East,97,0.0,14.0,61,0.00,,,0.00,0.0,meteohub,2013-03-25 00:03:00,
2013-03-24 20:08:00,30.7,18.9,29.74,East,94,6.0,14.0,61,0.00,,,0.00,0.0,meteohub,2013-03-25 00:08:00,
2013-03-24 20:13:00,30.6,19.0,29.74,East,79,5.0,14.0,62,0.00,,,0.00,0.0,meteohub,2013-03-25 00:13:00,
2013-03-24 20:18:00,30.6,19.0,29.74,East,85,3.0,13.0,62,0.00,,,0.00,0.0,meteohub,2013-03-25 00:18:00,
2013-03-24 20:23:00,30.6,19.4,29.73,East,95,2.0,13.0,63,0.00,,,0.00,0.0,meteohub,2013-03-25 00:23:00,
2013-03-24 20:28:00,30.6,20.1,29.73,NNW,342,4.0,19.0,65,0.00,,,0.00,0.0,meteohub,2013-03-25 00:28:00,
2013-03-24 20:33:00,30.6,20.5,29.74,North,0,0.0,19.0,66,0.00,,,0.00,0.0,meteohub,2013-03-25 00:33:00,
2013-03-24 20:38:00,30.4,20.7,29.74,NE,49,0.0,16.0,67,0.00,,,0.00,0.0,meteohub,2013-03-25 00:38:00,
2013-03-24 20:43:00,30.4,21.0,29.74,East,85,1.0,16.0,68,0.00,,,0.00,0.0,meteohub,2013-03-25 00:43:00,
2013-03-24 20:48:00,30.2,21.2,29.74,East,94,6.0,16.0,69,0.00,,,0.00,0.0,meteohub,2013-03-25 00:48:00,
2013-03-24 20:53:00,30.0,21.4,29.74,East,91,0.0,16.0,70,0.00,,,0.00,0.0,meteohub,2013-03-25 00:53:00,
2013-03-24 20:58:00,29.8,21.2,29.74,ENE,76,4.0,21.0,70,0.00,,,0.00,0.0,meteohub,2013-03-25 00:58:00,
2013-03-24 21:03:00,29.8,21.6,29.74,East,82,3.0,21.0,71,0.00,,,0.00,0.0,meteohub,2013-03-25 01:03:00,
2013-03-24 21:08:00,29.7,21.4,29.74,ENE,69,1.0,20.0,71,0.00,,,0.00,0.0,meteohub,2013-03-25 01:08:00,
2013-03-24 21:14:00,29.7,21.4,29.74,ESE,109,2.0,20.0,71,0.00,,,0.00,0.0,meteohub,2013-03-25 01:14:00,
2013-03-24 21:19:00,29.7,21.4,29.75,East,82,0.0,21.0,71,0.00,,,0.00,0.0,meteohub,2013-03-25 01:19:00,
2013-03-24 21:24:00,29.5,21.2,29.75,East,84,4.0,21.0,71,0.00,,,0.00,0.0,meteohub,2013-03-25 01:24:00,
2013-03-24 21:29:00,29.5,21.6,29.75,WNW,297,4.0,21.0,72,0.00,,,0.00,0.0,meteohub,2013-03-25 01:29:00,
2013-03-24 21:34:00,29.5,21.6,29.75,NNW,348,2.0,21.0,72,0.00,,,0.00,0.0,meteohub,2013-03-25 01:34:00,
2013-03-24 21:39:00,29.5,21.6,29.74,NNE,14,0.0,18.0,72,0.00,,,0.00,0.0,meteohub,2013-03-25 01:39:00,
2013-03-24 21:44:00,29.5,21.9,29.74,East,89,5.0,18.0,73,0.00,,,0.00,0.0,meteohub,2013-03-25 01:44:00,
2013-03-24 21:49:00,29.5,21.6,29.74,East,80,7.0,15.0,72,0.00,,,0.00,0.0,meteohub,2013-03-25 01:49:00,
2013-03-24 21:54:00,29.3,21.7,29.74,NW,304,2.0,15.0,73,0.00,,,0.00,0.0,meteohub,2013-03-25 01:54:00,
2013-03-24 21:59:00,29.3,21.7,29.74,ENE,78,5.0,12.0,73,0.00,,,0.00,0.0,meteohub,2013-03-25 01:59:00,
2013-03-24 22:04:00,29.3,21.7,29.73,NNE,15,0.0,12.0,73,0.00,,,0.00,0.0,meteohub,2013-03-25 02:04:00,
2013-03-24 22:09:00,29.1,21.6,29.73,ENE,78,0.0,12.0,73,0.00,,,0.00,0.0,meteohub,2013-03-25 02:09:00,
2013-03-24 22:14:00,29.1,21.6,29.73,East,90,6.0,12.0,73,0.00,,,0.00,0.0,meteohub,2013-03-25 02:14:00,
2013-03-24 22:19:00,29.1,21.6,29.74,NNE,28,0.0,20.0,73,0.00,,,0.00,0.0,meteohub,2013-03-25 02:19:00,
2013-03-24 22:24:00,29.1,21.6,29.74,NE,36,0.0,20.0,73,0.00,,,0.00,0.0,meteohub,2013-03-25 02:24:00,
2013-03-24 22:29:00,29.1,21.6,29.73,ENE,66,4.0,12.0,73,0.00,,,0.00,0.0,meteohub,2013-03-25 02:29:00,
2013-03-24 22:34:00,29.1,21.6,29.73,East,88,3.0,12.0,73,0.00,,,0.00,0.0,meteohub,2013-03-25 02:34:00,
2013-03-24 22:39:00,28.9,21.4,29.73,ENE,58,0.0,11.0,73,0.00,,,0.00,0.0,meteohub,2013-03-25 02:39:00,
2013-03-24 22:44:00,28.9,21.4,29.74,NE,39,0.0,11.0,73,0.00,,,0.00,0.0,meteohub,2013-03-25 02:44:00,
2013-03-24 22:49:00,28.9,21.4,29.73,NNE,32,1.0,15.0,73,0.00,,,0.00,0.0,meteohub,2013-03-25 02:49:00,
2013-03-24 22:54:00,28.9,21.4,29.74,NW,321,4.0,15.0,73,0.00,,,0.00,0.0,meteohub,2013-03-25 02:54:00,
2013-03-24 22:59:00,28.9,21.4,29.74,East,82,0.0,15.0,73,0.00,,,0.00,0.0,meteohub,2013-03-25 02:59:00,
2013-03-24 23:04:00,28.9,21.4,29.74,NNW,333,0.0,15.0,73,0.00,,,0.00,0.0,meteohub,2013-03-25 03:04:00,
2013-03-24 23:09:00,28.9,21.4,29.74,NNW,327,5.0,11.0,73,0.00,,,0.00,0.0,meteohub,2013-03-25 03:09:00,
2013-03-24 23:14:00,28.9,21.4,29.74,NE,36,0.0,11.0,73,0.00,,,0.00,0.0,meteohub,2013-03-25 03:14:00,
2013-03-24 23:19:00,28.9,21.7,29.74,NW,321,4.0,8.0,74,0.00,,,0.00,0.0,meteohub,2013-03-25 03:19:00,
2013-03-24 23:24:00,28.9,21.7,29.73,NW,311,1.0,8.0,74,0.00,,,0.00,0.0,meteohub,2013-03-25 03:24:00,
2013-03-24 23:29:00,28.9,21.7,29.73,WNW,300,0.0,13.0,74,0.00,,,0.00,0.0,meteohub,2013-03-25 03:29:00,
2013-03-24 23:34:00,28.9,21.7,29.73,NNW,333,1.0,13.0,74,0.00,,,0.00,0.0,meteohub,2013-03-25 03:34:00,
2013-03-24 23:39:00,28.9,21.7,29.73,West,281,0.0,9.0,74,0.00,,,0.00,0.0,meteohub,2013-03-25 03:39:00,
2013-03-24 23:44:00,28.9,22.1,29.73,NW,323,0.0,9.0,75,0.00,,,0.00,0.0,meteohub,2013-03-25 03:44:00,
2013-03-24 23:49:00,28.9,21.7,29.73,WNW,298,0.0,9.0,74,0.00,,,0.00,0.0,meteohub,2013-03-25 03:49:00,
2013-03-24 23:54:00,28.9,22.1,29.73,WNW,291,0.0,9.0,75,0.00,,,0.00,0.0,meteohub,2013-03-25 03:54:00,
2013-03-24 23:59:00,28.9,22.1,29.73,North,355,0.0,13.0,75,0.00,,,0.00,0.0,meteohub,2013-03-25 03:59:00,